sensor_id;sensor_type;location;lat;lon;timestamp;temperature;humidity
76857;DHT22;66179;44.686;37.628;2023-02-26T00:01:29;10.92;75.55
76857;DHT22;66179;44.686;37.628;2023-02-26T00:03:58;10.94;74.64
76857;DHT22;66179;44.686;37.628;2023-02-26T00:06:25;10.99;74.25
76857;DHT22;66179;44.686;37.628;2023-02-26T00:08:52;11.01;73.46
76857;DHT22;66179;44.686;37.628;2023-02-26T00:11:19;11.02;73.56
76857;DHT22;66179;44.686;37.628;2023-02-26T00:13:46;11.03;73.63
76857;DHT22;66179;44.686;37.628;2023-02-26T00:18:48;11.01;73.66
76857;DHT22;66179;44.686;37.628;2023-02-26T00:21:19;11.05;73.25
76857;DHT22;66179;44.686;37.628;2023-02-26T00:23:46;11.03;73.66
76857;DHT22;66179;44.686;37.628;2023-02-26T00:26:13;11.04;73.63
76857;DHT22;66179;44.686;37.628;2023-02-26T00:28:40;11.05;73.74
76857;DHT22;66179;44.686;37.628;2023-02-26T00:31:07;11.02;73.81
76857;DHT22;66179;44.686;37.628;2023-02-26T00:33:34;11.00;74.31
76857;DHT22;66179;44.686;37.628;2023-02-26T00:39:34;10.99;74.12
76857;DHT22;66179;44.686;37.628;2023-02-26T00:42:02;10.97;74.34
76857;DHT22;66179;44.686;37.628;2023-02-26T00:44:29;10.98;73.92
76857;DHT22;66179;44.686;37.628;2023-02-26T00:47:20;10.95;74.64
76857;DHT22;66179;44.686;37.628;2023-02-26T00:52:58;10.87;75.33
76857;DHT22;66179;44.686;37.628;2023-02-26T00:55:26;10.86;75.60
76857;DHT22;66179;44.686;37.628;2023-02-26T00:57:52;10.86;75.54
76857;DHT22;66179;44.686;37.628;2023-02-26T01:00:20;10.88;75.38
76857;DHT22;66179;44.686;37.628;2023-02-26T01:02:47;10.84;76.22
76857;DHT22;66179;44.686;37.628;2023-02-26T01:05:15;10.80;76.42
76857;DHT22;66179;44.686;37.628;2023-02-26T01:10:39;10.70;77.18
76857;DHT22;66179;44.686;37.628;2023-02-26T01:13:06;10.71;77.44
76857;DHT22;66179;44.686;37.628;2023-02-26T01:15:33;10.73;77.51
76857;DHT22;66179;44.686;37.628;2023-02-26T01:18:21;10.73;77.44
76857;DHT22;66179;44.686;37.628;2023-02-26T01:21:11;10.66;78.05
76857;DHT22;66179;44.686;37.628;2023-02-26T01:23:40;10.62;78.40
76857;DHT22;66179;44.686;37.628;2023-02-26T01:26:22;10.66;77.96
76857;DHT22;66179;44.686;37.628;2023-02-26T01:28:50;10.69;78.27
76857;DHT22;66179;44.686;37.628;2023-02-26T01:34:04;10.74;77.95
76857;DHT22;66179;44.686;37.628;2023-02-26T01:36:38;10.68;78.24
76857;DHT22;66179;44.686;37.628;2023-02-26T01:41:54;10.66;78.04
76857;DHT22;66179;44.686;37.628;2023-02-26T01:47:16;10.72;78.08
76857;DHT22;66179;44.686;37.628;2023-02-26T01:49:45;10.70;77.97
76857;DHT22;66179;44.686;37.628;2023-02-26T01:54:57;10.67;78.48
76857;DHT22;66179;44.686;37.628;2023-02-26T01:57:24;10.70;78.76
76857;DHT22;66179;44.686;37.628;2023-02-26T01:59:51;10.71;78.61
76857;DHT22;66179;44.686;37.628;2023-02-26T02:02:23;10.71;78.85
76857;DHT22;66179;44.686;37.628;2023-02-26T02:04:50;10.71;78.66
76857;DHT22;66179;44.686;37.628;2023-02-26T02:07:19;10.71;79.04
76857;DHT22;66179;44.686;37.628;2023-02-26T02:09:46;10.74;79.07
76857;DHT22;66179;44.686;37.628;2023-02-26T02:15:03;10.77;78.87
76857;DHT22;66179;44.686;37.628;2023-02-26T02:17:51;10.82;78.89
76857;DHT22;66179;44.686;37.628;2023-02-26T02:23:23;10.84;79.38
76857;DHT22;66179;44.686;37.628;2023-02-26T02:31:06;10.75;79.62
76857;DHT22;66179;44.686;37.628;2023-02-26T02:33:43;10.77;79.85
76857;DHT22;66179;44.686;37.628;2023-02-26T02:36:18;10.78;79.91
76857;DHT22;66179;44.686;37.628;2023-02-26T02:38:50;10.81;79.97
76857;DHT22;66179;44.686;37.628;2023-02-26T02:41:41;10.79;80.27
76857;DHT22;66179;44.686;37.628;2023-02-26T02:44:13;10.79;80.26
76857;DHT22;66179;44.686;37.628;2023-02-26T02:46:44;10.80;80.40
76857;DHT22;66179;44.686;37.628;2023-02-26T02:49:26;10.83;80.11
76857;DHT22;66179;44.686;37.628;2023-02-26T02:51:58;10.85;79.66
76857;DHT22;66179;44.686;37.628;2023-02-26T02:54:46;10.87;80.02
76857;DHT22;66179;44.686;37.628;2023-02-26T02:57:18;10.89;79.85
76857;DHT22;66179;44.686;37.628;2023-02-26T02:59:57;10.90;79.97
76857;DHT22;66179;44.686;37.628;2023-02-26T03:05:01;10.93;80.23
76857;DHT22;66179;44.686;37.628;2023-02-26T03:07:35;10.92;80.47
76857;DHT22;66179;44.686;37.628;2023-02-26T03:10:03;10.92;80.51
76857;DHT22;66179;44.686;37.628;2023-02-26T03:12:32;10.89;80.38
76857;DHT22;66179;44.686;37.628;2023-02-26T03:14:59;10.88;80.52
76857;DHT22;66179;44.686;37.628;2023-02-26T03:17:35;10.88;80.52
76857;DHT22;66179;44.686;37.628;2023-02-26T03:20:24;10.92;80.64
76857;DHT22;66179;44.686;37.628;2023-02-26T03:34:17;10.90;81.14
76857;DHT22;66179;44.686;37.628;2023-02-26T03:39:30;10.86;81.46
76857;DHT22;66179;44.686;37.628;2023-02-26T03:42:10;10.84;81.63
76857;DHT22;66179;44.686;37.628;2023-02-26T03:44:56;10.87;81.56
76857;DHT22;66179;44.686;37.628;2023-02-26T03:47:24;10.92;81.34
76857;DHT22;66179;44.686;37.628;2023-02-26T03:52:29;10.82;81.87
76857;DHT22;66179;44.686;37.628;2023-02-26T03:55:35;10.77;82.33
76857;DHT22;66179;44.686;37.628;2023-02-26T03:58:22;10.85;81.88
76857;DHT22;66179;44.686;37.628;2023-02-26T04:01:20;10.79;82.06
76857;DHT22;66179;44.686;37.628;2023-02-26T04:04:01;10.83;81.91
76857;DHT22;66179;44.686;37.628;2023-02-26T04:06:30;10.79;82.23
76857;DHT22;66179;44.686;37.628;2023-02-26T04:08:56;10.81;82.10
76857;DHT22;66179;44.686;37.628;2023-02-26T04:11:23;10.74;82.01
76857;DHT22;66179;44.686;37.628;2023-02-26T04:13:51;10.71;82.00
76857;DHT22;66179;44.686;37.628;2023-02-26T04:16:19;10.73;82.16
76857;DHT22;66179;44.686;37.628;2023-02-26T04:18:46;10.75;82.34
76857;DHT22;66179;44.686;37.628;2023-02-26T04:21:14;10.74;82.83
76857;DHT22;66179;44.686;37.628;2023-02-26T04:23:42;10.83;82.52
76857;DHT22;66179;44.686;37.628;2023-02-26T04:26:09;10.83;82.48
76857;DHT22;66179;44.686;37.628;2023-02-26T04:28:40;10.80;82.74
76857;DHT22;66179;44.686;37.628;2023-02-26T04:31:07;10.78;82.77
76857;DHT22;66179;44.686;37.628;2023-02-26T04:33:35;10.79;82.75
76857;DHT22;66179;44.686;37.628;2023-02-26T04:36:02;10.79;82.76
76857;DHT22;66179;44.686;37.628;2023-02-26T04:38:30;10.79;82.89
76857;DHT22;66179;44.686;37.628;2023-02-26T04:40:57;10.78;83.06
76857;DHT22;66179;44.686;37.628;2023-02-26T04:43:24;10.78;83.10
76857;DHT22;66179;44.686;37.628;2023-02-26T04:46:04;10.75;83.41
76857;DHT22;66179;44.686;37.628;2023-02-26T04:48:31;10.77;83.29
76857;DHT22;66179;44.686;37.628;2023-02-26T04:50:58;10.79;83.22
76857;DHT22;66179;44.686;37.628;2023-02-26T04:53:24;10.80;83.20
76857;DHT22;66179;44.686;37.628;2023-02-26T04:55:51;10.84;83.01
76857;DHT22;66179;44.686;37.628;2023-02-26T04:58:17;10.86;83.05
76857;DHT22;66179;44.686;37.628;2023-02-26T05:00:50;10.84;83.17
76857;DHT22;66179;44.686;37.628;2023-02-26T05:03:17;10.88;83.04
76857;DHT22;66179;44.686;37.628;2023-02-26T05:05:45;10.89;83.00
76857;DHT22;66179;44.686;37.628;2023-02-26T05:08:12;10.89;83.05
76857;DHT22;66179;44.686;37.628;2023-02-26T05:10:39;10.87;82.95
76857;DHT22;66179;44.686;37.628;2023-02-26T05:13:05;10.88;82.86
76857;DHT22;66179;44.686;37.628;2023-02-26T05:15:32;10.90;82.89
76857;DHT22;66179;44.686;37.628;2023-02-26T05:17:59;10.95;82.67
76857;DHT22;66179;44.686;37.628;2023-02-26T05:20:25;10.96;82.64
76857;DHT22;66179;44.686;37.628;2023-02-26T05:22:52;10.98;82.47
76857;DHT22;66179;44.686;37.628;2023-02-26T05:25:19;11.00;82.10
76857;DHT22;66179;44.686;37.628;2023-02-26T05:27:45;11.01;82.03
76857;DHT22;66179;44.686;37.628;2023-02-26T05:30:13;11.03;81.92
76857;DHT22;66179;44.686;37.628;2023-02-26T05:32:43;11.08;81.62
76857;DHT22;66179;44.686;37.628;2023-02-26T05:35:10;11.10;81.40
76857;DHT22;66179;44.686;37.628;2023-02-26T05:37:38;11.11;81.22
76857;DHT22;66179;44.686;37.628;2023-02-26T05:40:06;11.14;81.14
76857;DHT22;66179;44.686;37.628;2023-02-26T05:42:38;11.14;81.17
76857;DHT22;66179;44.686;37.628;2023-02-26T05:45:05;11.15;80.95
76857;DHT22;66179;44.686;37.628;2023-02-26T05:47:33;11.18;80.85
76857;DHT22;66179;44.686;37.628;2023-02-26T05:50:00;11.19;80.75
76857;DHT22;66179;44.686;37.628;2023-02-26T05:52:26;11.20;80.77
76857;DHT22;66179;44.686;37.628;2023-02-26T05:54:53;11.22;80.71
76857;DHT22;66179;44.686;37.628;2023-02-26T05:57:19;11.26;80.38
76857;DHT22;66179;44.686;37.628;2023-02-26T05:59:46;11.27;80.51
76857;DHT22;66179;44.686;37.628;2023-02-26T06:02:13;11.31;80.30
76857;DHT22;66179;44.686;37.628;2023-02-26T06:04:39;11.32;80.17
76857;DHT22;66179;44.686;37.628;2023-02-26T06:07:06;11.37;79.98
76857;DHT22;66179;44.686;37.628;2023-02-26T06:09:32;11.39;80.03
76857;DHT22;66179;44.686;37.628;2023-02-26T06:11:59;11.43;79.93
76857;DHT22;66179;44.686;37.628;2023-02-26T06:14:25;11.45;80.04
76857;DHT22;66179;44.686;37.628;2023-02-26T06:16:52;11.48;79.83
76857;DHT22;66179;44.686;37.628;2023-02-26T06:19:18;11.49;79.83
76857;DHT22;66179;44.686;37.628;2023-02-26T06:21:46;11.53;79.49
76857;DHT22;66179;44.686;37.628;2023-02-26T06:24:13;11.52;79.53
76857;DHT22;66179;44.686;37.628;2023-02-26T06:26:40;11.49;79.76
76857;DHT22;66179;44.686;37.628;2023-02-26T06:29:06;11.55;79.49
76857;DHT22;66179;44.686;37.628;2023-02-26T06:31:33;11.60;79.15
76857;DHT22;66179;44.686;37.628;2023-02-26T06:34:00;11.63;78.93
76857;DHT22;66179;44.686;37.628;2023-02-26T06:36:26;11.69;78.79
76857;DHT22;66179;44.686;37.628;2023-02-26T06:38:53;11.72;78.57
76857;DHT22;66179;44.686;37.628;2023-02-26T06:41:20;11.69;79.11
76857;DHT22;66179;44.686;37.628;2023-02-26T06:43:47;11.73;78.75
76857;DHT22;66179;44.686;37.628;2023-02-26T06:46:13;11.73;78.70
76857;DHT22;66179;44.686;37.628;2023-02-26T06:48:40;11.76;78.84
76857;DHT22;66179;44.686;37.628;2023-02-26T06:51:06;11.77;78.50
76857;DHT22;66179;44.686;37.628;2023-02-26T06:53:33;11.77;78.66
76857;DHT22;66179;44.686;37.628;2023-02-26T06:55:59;11.79;78.64
76857;DHT22;66179;44.686;37.628;2023-02-26T06:58:26;11.84;78.72
76857;DHT22;66179;44.686;37.628;2023-02-26T07:00:52;11.88;78.14
76857;DHT22;66179;44.686;37.628;2023-02-26T07:03:19;11.90;77.87
76857;DHT22;66179;44.686;37.628;2023-02-26T07:05:46;11.97;77.62
76857;DHT22;66179;44.686;37.628;2023-02-26T07:08:13;11.94;77.82
76857;DHT22;66179;44.686;37.628;2023-02-26T07:10:41;11.98;77.81
76857;DHT22;66179;44.686;37.628;2023-02-26T07:13:08;11.93;77.75
76857;DHT22;66179;44.686;37.628;2023-02-26T07:15:34;11.97;77.85
76857;DHT22;66179;44.686;37.628;2023-02-26T07:18:01;11.92;78.09
76857;DHT22;66179;44.686;37.628;2023-02-26T07:20:28;11.94;77.83
76857;DHT22;66179;44.686;37.628;2023-02-26T07:22:57;11.89;78.11
76857;DHT22;66179;44.686;37.628;2023-02-26T07:25:24;11.91;78.34
76857;DHT22;66179;44.686;37.628;2023-02-26T07:27:50;11.98;77.37
76857;DHT22;66179;44.686;37.628;2023-02-26T07:30:17;11.97;77.83
76857;DHT22;66179;44.686;37.628;2023-02-26T07:32:44;12.00;77.50
76857;DHT22;66179;44.686;37.628;2023-02-26T07:35:11;12.03;77.30
76857;DHT22;66179;44.686;37.628;2023-02-26T07:37:37;11.98;77.60
76857;DHT22;66179;44.686;37.628;2023-02-26T07:40:06;11.92;77.74
76857;DHT22;66179;44.686;37.628;2023-02-26T07:42:33;12.01;77.92
76857;DHT22;66179;44.686;37.628;2023-02-26T07:45:00;11.99;77.57
76857;DHT22;66179;44.686;37.628;2023-02-26T07:47:27;12.12;77.03
76857;DHT22;66179;44.686;37.628;2023-02-26T07:49:56;12.05;76.66
76857;DHT22;66179;44.686;37.628;2023-02-26T07:52:22;12.04;76.95
76857;DHT22;66179;44.686;37.628;2023-02-26T07:54:49;12.14;77.12
76857;DHT22;66179;44.686;37.628;2023-02-26T07:57:16;12.23;76.66
76857;DHT22;66179;44.686;37.628;2023-02-26T07:59:42;12.26;76.66
76857;DHT22;66179;44.686;37.628;2023-02-26T08:02:10;12.21;76.79
76857;DHT22;66179;44.686;37.628;2023-02-26T08:04:37;12.12;77.22
76857;DHT22;66179;44.686;37.628;2023-02-26T08:07:04;12.15;77.26
76857;DHT22;66179;44.686;37.628;2023-02-26T08:09:30;12.22;76.99
76857;DHT22;66179;44.686;37.628;2023-02-26T08:11:57;12.37;76.54
76857;DHT22;66179;44.686;37.628;2023-02-26T08:14:23;12.40;76.73
76857;DHT22;66179;44.686;37.628;2023-02-26T08:16:50;12.34;76.36
76857;DHT22;66179;44.686;37.628;2023-02-26T08:19:18;12.34;76.42
76857;DHT22;66179;44.686;37.628;2023-02-26T08:21:45;12.42;76.18
76857;DHT22;66179;44.686;37.628;2023-02-26T08:24:11;12.36;76.12
76857;DHT22;66179;44.686;37.628;2023-02-26T08:26:38;12.34;76.73
76857;DHT22;66179;44.686;37.628;2023-02-26T08:29:05;12.37;76.05
76857;DHT22;66179;44.686;37.628;2023-02-26T08:31:32;12.44;76.83
76857;DHT22;66179;44.686;37.628;2023-02-26T08:34:00;12.53;76.81
76857;DHT22;66179;44.686;37.628;2023-02-26T08:36:27;12.65;75.20
76857;DHT22;66179;44.686;37.628;2023-02-26T08:38:53;12.72;75.64
76857;DHT22;66179;44.686;37.628;2023-02-26T08:41:20;12.71;75.36
76857;DHT22;66179;44.686;37.628;2023-02-26T08:43:48;12.70;75.87
76857;DHT22;66179;44.686;37.628;2023-02-26T08:46:15;12.74;75.51
76857;DHT22;66179;44.686;37.628;2023-02-26T08:48:41;12.77;75.35
76857;DHT22;66179;44.686;37.628;2023-02-26T08:51:08;12.73;75.52
76857;DHT22;66179;44.686;37.628;2023-02-26T08:53:34;12.81;75.42
76857;DHT22;66179;44.686;37.628;2023-02-26T08:56:01;12.74;75.78
76857;DHT22;66179;44.686;37.628;2023-02-26T08:58:27;12.75;75.61
76857;DHT22;66179;44.686;37.628;2023-02-26T09:00:54;12.79;75.08
76857;DHT22;66179;44.686;37.628;2023-02-26T09:03:20;12.80;75.07
76857;DHT22;66179;44.686;37.628;2023-02-26T09:05:49;12.92;74.61
76857;DHT22;66179;44.686;37.628;2023-02-26T09:08:16;12.99;73.90
76857;DHT22;66179;44.686;37.628;2023-02-26T09:10:42;13.06;74.19
76857;DHT22;66179;44.686;37.628;2023-02-26T09:13:09;13.10;73.94
76857;DHT22;66179;44.686;37.628;2023-02-26T09:15:36;13.08;74.15
76857;DHT22;66179;44.686;37.628;2023-02-26T09:18:03;13.10;75.15
76857;DHT22;66179;44.686;37.628;2023-02-26T09:20:30;13.09;74.38
76857;DHT22;66179;44.686;37.628;2023-02-26T09:22:56;13.04;74.44
76857;DHT22;66179;44.686;37.628;2023-02-26T09:25:23;13.11;74.60
76857;DHT22;66179;44.686;37.628;2023-02-26T09:27:49;13.06;74.32
76857;DHT22;66179;44.686;37.628;2023-02-26T09:30:16;13.08;74.42
76857;DHT22;66179;44.686;37.628;2023-02-26T09:32:43;13.09;74.47
76857;DHT22;66179;44.686;37.628;2023-02-26T09:35:09;13.08;74.18
76857;DHT22;66179;44.686;37.628;2023-02-26T09:37:36;13.12;75.13
76857;DHT22;66179;44.686;37.628;2023-02-26T09:40:03;13.11;74.24
76857;DHT22;66179;44.686;37.628;2023-02-26T09:45:41;13.17;74.20
76857;DHT22;66179;44.686;37.628;2023-02-26T09:48:11;13.17;74.77
76857;DHT22;66179;44.686;37.628;2023-02-26T09:50:47;13.18;73.99
76857;DHT22;66179;44.686;37.628;2023-02-26T09:53:36;13.10;74.89
76857;DHT22;66179;44.686;37.628;2023-02-26T09:56:15;13.03;74.18
76857;DHT22;66179;44.686;37.628;2023-02-26T09:58:43;13.06;74.97
76857;DHT22;66179;44.686;37.628;2023-02-26T10:06:32;13.23;74.69
76857;DHT22;66179;44.686;37.628;2023-02-26T10:09:28;13.20;74.71
76857;DHT22;66179;44.686;37.628;2023-02-26T10:12:08;13.27;73.70
76857;DHT22;66179;44.686;37.628;2023-02-26T10:14:53;13.27;73.67
76857;DHT22;66179;44.686;37.628;2023-02-26T10:20:20;13.29;73.02
76857;DHT22;66179;44.686;37.628;2023-02-26T10:23:22;13.40;72.70
76857;DHT22;66179;44.686;37.628;2023-02-26T10:25:53;13.53;72.47
76857;DHT22;66179;44.686;37.628;2023-02-26T10:28:30;13.64;73.28
76857;DHT22;66179;44.686;37.628;2023-02-26T10:31:04;13.65;72.70
76857;DHT22;66179;44.686;37.628;2023-02-26T10:33:46;13.69;71.84
76857;DHT22;66179;44.686;37.628;2023-02-26T10:36:31;13.53;71.75
76857;DHT22;66179;44.686;37.628;2023-02-26T10:39:01;13.49;72.19
76857;DHT22;66179;44.686;37.628;2023-02-26T10:41:30;13.41;72.96
76857;DHT22;66179;44.686;37.628;2023-02-26T10:44:41;13.40;72.81
76857;DHT22;66179;44.686;37.628;2023-02-26T10:47:48;13.31;72.48
76857;DHT22;66179;44.686;37.628;2023-02-26T10:50:20;13.36;73.39
76857;DHT22;66179;44.686;37.628;2023-02-26T10:52:49;13.45;72.38
76857;DHT22;66179;44.686;37.628;2023-02-26T10:55:36;13.48;73.64
76857;DHT22;66179;44.686;37.628;2023-02-26T10:58:14;13.59;72.02
76857;DHT22;66179;44.686;37.628;2023-02-26T11:00:44;13.56;73.12
76857;DHT22;66179;44.686;37.628;2023-02-26T11:03:18;13.64;73.30
76857;DHT22;66179;44.686;37.628;2023-02-26T11:05:45;13.77;71.22
76857;DHT22;66179;44.686;37.628;2023-02-26T11:08:25;13.78;72.80
76857;DHT22;66179;44.686;37.628;2023-02-26T11:10:54;13.79;73.34
76857;DHT22;66179;44.686;37.628;2023-02-26T11:13:23;13.76;72.16
76857;DHT22;66179;44.686;37.628;2023-02-26T11:15:54;13.70;72.75
76857;DHT22;66179;44.686;37.628;2023-02-26T11:18:28;13.67;73.64
76857;DHT22;66179;44.686;37.628;2023-02-26T11:20:57;13.74;72.03
76857;DHT22;66179;44.686;37.628;2023-02-26T11:23:28;13.82;71.95
76857;DHT22;66179;44.686;37.628;2023-02-26T11:26:03;13.84;72.60
76857;DHT22;66179;44.686;37.628;2023-02-26T11:28:35;13.92;71.28
76857;DHT22;66179;44.686;37.628;2023-02-26T11:31:06;13.96;71.35
76857;DHT22;66179;44.686;37.628;2023-02-26T11:33:42;14.07;72.79
76857;DHT22;66179;44.686;37.628;2023-02-26T11:36:12;14.04;71.30
76857;DHT22;66179;44.686;37.628;2023-02-26T11:38:39;13.97;71.18
76857;DHT22;66179;44.686;37.628;2023-02-26T11:41:06;13.90;71.39
76857;DHT22;66179;44.686;37.628;2023-02-26T11:43:42;13.82;71.59
76857;DHT22;66179;44.686;37.628;2023-02-26T11:46:10;13.73;71.65
76857;DHT22;66179;44.686;37.628;2023-02-26T11:48:47;13.65;71.90
76857;DHT22;66179;44.686;37.628;2023-02-26T11:51:19;13.51;73.03
76857;DHT22;66179;44.686;37.628;2023-02-26T11:53:57;13.55;72.48
76857;DHT22;66179;44.686;37.628;2023-02-26T11:56:42;13.60;72.15
76857;DHT22;66179;44.686;37.628;2023-02-26T11:59:23;13.73;72.06
76857;DHT22;66179;44.686;37.628;2023-02-26T12:01:51;13.81;72.10
76857;DHT22;66179;44.686;37.628;2023-02-26T12:04:23;13.80;71.91
76857;DHT22;66179;44.686;37.628;2023-02-26T12:06:53;13.78;71.83
76857;DHT22;66179;44.686;37.628;2023-02-26T12:09:20;13.85;71.91
76857;DHT22;66179;44.686;37.628;2023-02-26T12:17:59;13.92;71.58
76857;DHT22;66179;44.686;37.628;2023-02-26T12:20:44;14.04;71.25
76857;DHT22;66179;44.686;37.628;2023-02-26T12:26:12;13.93;70.57
76857;DHT22;66179;44.686;37.628;2023-02-26T12:29:06;13.86;71.20
76857;DHT22;66179;44.686;37.628;2023-02-26T12:32:03;13.93;71.61
76857;DHT22;66179;44.686;37.628;2023-02-26T12:34:43;13.88;71.08
76857;DHT22;66179;44.686;37.628;2023-02-26T12:40:05;13.83;71.48
76857;DHT22;66179;44.686;37.628;2023-02-26T12:43:19;13.89;71.75
76857;DHT22;66179;44.686;37.628;2023-02-26T12:54:34;14.04;70.77
76857;DHT22;66179;44.686;37.628;2023-02-26T13:05:38;13.99;70.79
76857;DHT22;66179;44.686;37.628;2023-02-26T13:08:17;13.92;70.49
76857;DHT22;66179;44.686;37.628;2023-02-26T13:10:51;13.82;70.88
76857;DHT22;66179;44.686;37.628;2023-02-26T13:13:57;13.74;71.21
76857;DHT22;66179;44.686;37.628;2023-02-26T13:21:52;13.49;71.76
76857;DHT22;66179;44.686;37.628;2023-02-26T13:26:58;13.31;72.26
76857;DHT22;66179;44.686;37.628;2023-02-26T13:29:29;13.27;72.57
76857;DHT22;66179;44.686;37.628;2023-02-26T13:32:21;13.17;72.70
76857;DHT22;66179;44.686;37.628;2023-02-26T13:34:56;13.02;73.27
76857;DHT22;66179;44.686;37.628;2023-02-26T13:37:33;12.99;73.73
76857;DHT22;66179;44.686;37.628;2023-02-26T13:43:09;12.81;74.31
76857;DHT22;66179;44.686;37.628;2023-02-26T13:51:46;12.73;74.22
76857;DHT22;66179;44.686;37.628;2023-02-26T13:56:53;12.66;74.73
76857;DHT22;66179;44.686;37.628;2023-02-26T14:05:00;12.50;75.37
76857;DHT22;66179;44.686;37.628;2023-02-26T14:10:57;12.45;75.02
76857;DHT22;66179;44.686;37.628;2023-02-26T14:13:38;12.52;74.92
76857;DHT22;66179;44.686;37.628;2023-02-26T14:16:26;12.45;75.64
76857;DHT22;66179;44.686;37.628;2023-02-26T14:19:04;12.44;75.14
76857;DHT22;66179;44.686;37.628;2023-02-26T14:21:51;12.36;75.69
76857;DHT22;66179;44.686;37.628;2023-02-26T14:24:36;12.28;76.14
76857;DHT22;66179;44.686;37.628;2023-02-26T14:32:47;12.18;76.02
76857;DHT22;66179;44.686;37.628;2023-02-26T14:35:21;12.18;76.11
76857;DHT22;66179;44.686;37.628;2023-02-26T14:38:07;12.18;76.26
76857;DHT22;66179;44.686;37.628;2023-02-26T14:40:39;12.10;76.27
76857;DHT22;66179;44.686;37.628;2023-02-26T14:43:33;12.05;76.46
76857;DHT22;66179;44.686;37.628;2023-02-26T14:46:01;12.04;76.07
76857;DHT22;66179;44.686;37.628;2023-02-26T14:48:29;12.04;75.59
76857;DHT22;66179;44.686;37.628;2023-02-26T14:59:21;11.94;75.85
76857;DHT22;66179;44.686;37.628;2023-02-26T15:05:15;11.85;75.24
76857;DHT22;66179;44.686;37.628;2023-02-26T15:13:16;11.76;75.71
76857;DHT22;66179;44.686;37.628;2023-02-26T15:16:01;11.73;75.76
76857;DHT22;66179;44.686;37.628;2023-02-26T15:23:57;11.67;76.13
76857;DHT22;66179;44.686;37.628;2023-02-26T15:28:55;11.67;76.06
76857;DHT22;66179;44.686;37.628;2023-02-26T15:31:50;11.71;76.03
76857;DHT22;66179;44.686;37.628;2023-02-26T15:34:18;11.76;75.86
76857;DHT22;66179;44.686;37.628;2023-02-26T15:36:48;11.73;75.84
76857;DHT22;66179;44.686;37.628;2023-02-26T15:39:17;11.72;76.53
76857;DHT22;66179;44.686;37.628;2023-02-26T15:41:48;11.71;75.93
76857;DHT22;66179;44.686;37.628;2023-02-26T15:44:20;11.70;76.15
76857;DHT22;66179;44.686;37.628;2023-02-26T15:46:51;11.67;76.18
76857;DHT22;66179;44.686;37.628;2023-02-26T15:51:45;11.57;76.60
76857;DHT22;66179;44.686;37.628;2023-02-26T15:54:19;11.53;76.98
76857;DHT22;66179;44.686;37.628;2023-02-26T15:56:46;11.59;76.73
76857;DHT22;66179;44.686;37.628;2023-02-26T15:59:25;11.58;76.50
76857;DHT22;66179;44.686;37.628;2023-02-26T16:01:53;11.55;76.65
76857;DHT22;66179;44.686;37.628;2023-02-26T16:04:21;11.54;76.63
76857;DHT22;66179;44.686;37.628;2023-02-26T16:06:52;11.49;76.67
76857;DHT22;66179;44.686;37.628;2023-02-26T16:09:28;11.51;76.53
76857;DHT22;66179;44.686;37.628;2023-02-26T16:12:00;11.46;76.73
76857;DHT22;66179;44.686;37.628;2023-02-26T16:14:39;11.43;76.87
76857;DHT22;66179;44.686;37.628;2023-02-26T16:17:13;11.39;77.05
76857;DHT22;66179;44.686;37.628;2023-02-26T16:19:45;11.37;77.12
76857;DHT22;66179;44.686;37.628;2023-02-26T16:22:33;11.37;76.99
76857;DHT22;66179;44.686;37.628;2023-02-26T16:25:16;11.38;76.96
76857;DHT22;66179;44.686;37.628;2023-02-26T16:27:48;11.36;76.79
76857;DHT22;66179;44.686;37.628;2023-02-26T16:30:22;11.39;77.00
76857;DHT22;66179;44.686;37.628;2023-02-26T16:32:51;11.38;77.23
76857;DHT22;66179;44.686;37.628;2023-02-26T16:35:21;11.36;76.92
76857;DHT22;66179;44.686;37.628;2023-02-26T16:37:53;11.36;76.82
76857;DHT22;66179;44.686;37.628;2023-02-26T16:40:33;11.36;76.91
76857;DHT22;66179;44.686;37.628;2023-02-26T16:46:10;11.34;77.11
76857;DHT22;66179;44.686;37.628;2023-02-26T16:48:53;11.29;77.15
76857;DHT22;66179;44.686;37.628;2023-02-26T16:51:24;11.27;77.25
76857;DHT22;66179;44.686;37.628;2023-02-26T16:53:59;11.27;76.87
76857;DHT22;66179;44.686;37.628;2023-02-26T16:56:34;11.26;76.98
76857;DHT22;66179;44.686;37.628;2023-02-26T16:59:16;11.27;76.89
76857;DHT22;66179;44.686;37.628;2023-02-26T17:04:53;11.24;76.97
76857;DHT22;66179;44.686;37.628;2023-02-26T17:07:26;11.18;76.98
76857;DHT22;66179;44.686;37.628;2023-02-26T17:09:57;11.04;77.49
76857;DHT22;66179;44.686;37.628;2023-02-26T17:12:45;10.96;77.66
76857;DHT22;66179;44.686;37.628;2023-02-26T17:15:29;10.98;77.72
76857;DHT22;66179;44.686;37.628;2023-02-26T17:17:57;11.00;77.56
76857;DHT22;66179;44.686;37.628;2023-02-26T17:20:26;11.01;77.51
76857;DHT22;66179;44.686;37.628;2023-02-26T17:22:54;11.04;77.37
76857;DHT22;66179;44.686;37.628;2023-02-26T17:25:21;11.02;77.49
76857;DHT22;66179;44.686;37.628;2023-02-26T17:27:52;11.02;77.42
76857;DHT22;66179;44.686;37.628;2023-02-26T17:30:22;10.98;77.53
76857;DHT22;66179;44.686;37.628;2023-02-26T17:32:55;10.98;77.63
76857;DHT22;66179;44.686;37.628;2023-02-26T17:35:21;10.94;77.79
76857;DHT22;66179;44.686;37.628;2023-02-26T17:37:50;10.92;78.00
76857;DHT22;66179;44.686;37.628;2023-02-26T17:40:28;10.89;77.83
76857;DHT22;66179;44.686;37.628;2023-02-26T17:42:57;10.88;77.92
76857;DHT22;66179;44.686;37.628;2023-02-26T17:45:25;10.83;77.95
76857;DHT22;66179;44.686;37.628;2023-02-26T17:47:52;10.78;78.30
76857;DHT22;66179;44.686;37.628;2023-02-26T17:53:13;10.80;78.18
76857;DHT22;66179;44.686;37.628;2023-02-26T17:55:40;10.75;78.27
76857;DHT22;66179;44.686;37.628;2023-02-26T17:58:16;10.74;78.11
76857;DHT22;66179;44.686;37.628;2023-02-26T18:00:46;10.68;78.11
76857;DHT22;66179;44.686;37.628;2023-02-26T18:03:15;10.67;78.34
76857;DHT22;66179;44.686;37.628;2023-02-26T18:05:42;10.64;78.01
76857;DHT22;66179;44.686;37.628;2023-02-26T18:08:21;10.57;78.62
76857;DHT22;66179;44.686;37.628;2023-02-26T18:10:49;10.54;78.65
76857;DHT22;66179;44.686;37.628;2023-02-26T18:13:15;10.52;78.40
76857;DHT22;66179;44.686;37.628;2023-02-26T18:15:42;10.62;77.07
76857;DHT22;66179;44.686;37.628;2023-02-26T18:18:12;10.64;77.88
76857;DHT22;66179;44.686;37.628;2023-02-26T18:20:40;10.62;77.83
76857;DHT22;66179;44.686;37.628;2023-02-26T18:23:07;10.65;78.16
76857;DHT22;66179;44.686;37.628;2023-02-26T18:25:34;10.63;77.15
76857;DHT22;66179;44.686;37.628;2023-02-26T18:28:02;10.69;76.41